createdAt,value
2023-03-16T00:02:16.310Z,17.70
2023-03-16T00:05:15.829Z,19.80
2023-03-16T00:08:15.022Z,18.40
2023-03-16T00:11:17.626Z,19.00
2023-03-16T00:14:18.718Z,20.90
2023-03-16T00:17:19.879Z,20.20
2023-03-16T00:20:17.586Z,19.10
2023-03-16T00:23:13.644Z,16.80
2023-03-16T00:26:14.022Z,19.20
2023-03-16T00:29:14.676Z,16.00
2023-03-16T00:32:19.132Z,17.50
2023-03-16T00:35:18.212Z,17.20
2023-03-16T00:41:59.288Z,22.10
2023-03-16T00:45:34.016Z,19.20
2023-03-16T00:48:46.008Z,17.00
2023-03-16T00:51:46.675Z,19.30
2023-03-16T00:54:50.446Z,15.30
2023-03-16T00:57:43.472Z,16.80
2023-03-16T01:00:46.604Z,17.70
2023-03-16T01:03:47.358Z,17.70
2023-03-16T01:06:46.230Z,18.30
2023-03-16T01:09:48.357Z,15.20
2023-03-16T01:12:46.733Z,18.70
2023-03-16T01:15:47.943Z,20.00
2023-03-16T01:18:45.984Z,17.90
2023-03-16T01:21:46.559Z,15.20
2023-03-16T01:24:47.460Z,14.20
2023-03-16T01:27:46.919Z,20.50
2023-03-16T01:30:47.473Z,14.70
2023-03-16T03:00:30.339Z,24.40
2023-03-16T03:03:49.977Z,21.70
2023-03-16T03:06:44.067Z,21.80
2023-03-16T03:09:48.729Z,21.00
2023-03-16T03:12:50.056Z,22.90
2023-03-16T03:15:46.082Z,20.80
2023-03-16T03:22:36.292Z,25.00
2023-03-16T03:26:04.964Z,23.50
2023-03-16T03:29:18.429Z,23.10
2023-03-16T03:32:14.512Z,18.90
2023-03-16T03:35:22.449Z,18.20
2023-03-16T04:24:55.517Z,21.40
2023-03-16T04:27:42.460Z,22.50
2023-03-16T04:30:45.513Z,21.00
2023-03-16T04:34:24.468Z,19.00
2023-03-16T04:37:56.919Z,19.10
2023-03-16T04:41:13.126Z,19.80
2023-03-16T04:44:25.571Z,25.30
2023-03-16T04:53:38.470Z,24.50
2023-03-16T04:56:24.429Z,22.00
2023-03-16T04:59:22.809Z,22.10
2023-03-16T05:02:22.188Z,26.70
2023-03-16T05:05:22.778Z,23.30
2023-03-16T05:08:25.241Z,21.80
2023-03-16T05:11:21.121Z,21.80
2023-03-16T05:14:21.138Z,18.20
2023-03-16T05:17:23.936Z,23.20
2023-03-16T05:20:22.294Z,22.10
2023-03-16T05:23:22.638Z,19.50
2023-03-16T05:26:25.429Z,22.50
2023-03-16T05:29:22.047Z,21.90
2023-03-16T05:32:24.210Z,22.30
2023-03-16T05:35:24.395Z,27.90
2023-03-16T05:38:22.780Z,18.30
2023-03-16T05:41:23.601Z,22.80
2023-03-16T13:56:43.830Z,4.80
2023-03-16T14:00:25.695Z,4.00
2023-03-16T14:03:52.163Z,5.10
2023-03-16T14:10:58.635Z,4.40
2023-03-16T14:14:39.461Z,7.20
2023-03-16T14:18:16.144Z,4.60
2023-03-16T14:21:47.629Z,3.80
2023-03-16T14:35:23.357Z,9.50
2023-03-16T14:38:58.104Z,6.20
2023-03-16T14:42:34.097Z,8.50
2023-03-16T14:46:16.434Z,5.10
2023-03-16T14:56:17.791Z,6.80
2023-03-16T14:59:51.852Z,6.20
2023-03-16T15:03:33.571Z,5.50
2023-03-16T15:07:28.857Z,6.20
2023-03-16T15:10:51.317Z,5.80
2023-03-16T15:31:38.340Z,10.50
2023-03-16T15:34:54.762Z,6.90
2023-03-16T15:38:33.796Z,9.10
2023-03-16T16:05:52.520Z,8.60
2023-03-16T16:09:26.332Z,6.20
2023-03-16T16:13:01.962Z,7.90
2023-03-16T16:16:37.734Z,7.50
2023-03-16T16:23:25.466Z,8.70
2023-03-16T16:26:58.858Z,6.60
2023-03-16T16:30:28.171Z,7.00
2023-03-16T16:34:01.523Z,8.20
2023-03-16T16:54:18.859Z,10.40
2023-03-16T16:57:49.036Z,9.20
2023-03-16T17:01:28.371Z,10.50
2023-03-16T17:05:03.002Z,9.20
2023-03-16T17:08:36.953Z,10.70
2023-03-16T17:26:19.662Z,12.30
2023-03-16T17:29:53.601Z,10.90
2023-03-16T17:33:29.652Z,9.50
2023-03-16T17:37:03.279Z,11.30
2023-03-16T17:40:36.647Z,10.00
2023-03-16T17:44:16.727Z,9.40
2023-03-16T17:47:53.063Z,11.40
2023-03-16T18:14:28.125Z,8.60
2023-03-16T18:18:02.326Z,8.10
2023-03-16T18:21:36.880Z,11.80
2023-03-16T18:25:39.625Z,13.90
2023-03-16T18:42:57.820Z,12.10
2023-03-16T18:46:34.620Z,12.20
2023-03-16T19:00:07.361Z,7.50
2023-03-16T19:03:36.526Z,6.70
2023-03-16T19:07:26.459Z,10.60
2023-03-16T19:20:52.820Z,10.30
2023-03-16T19:24:29.617Z,7.30
2023-03-16T19:44:44.787Z,8.90
2023-03-16T19:48:21.822Z,8.10
2023-03-16T19:51:58.100Z,27.30
2023-03-16T19:55:35.186Z,14.10
2023-03-16T19:59:12.217Z,10.20
2023-03-16T20:02:44.495Z,9.30
2023-03-16T20:06:16.685Z,7.90
2023-03-16T20:09:51.072Z,8.80
2023-03-16T20:13:25.583Z,10.60
2023-03-16T20:16:59.180Z,9.30
2023-03-16T20:37:25.565Z,13.60
2023-03-16T20:40:59.578Z,15.40
2023-03-16T20:44:35.533Z,15.70
2023-03-16T21:08:23.701Z,16.60
2023-03-16T21:11:57.532Z,32.00
2023-03-16T21:15:35.119Z,21.00
2023-03-16T21:28:59.347Z,15.40
2023-03-16T21:32:35.514Z,15.70
2023-03-16T21:36:15.395Z,15.50
2023-03-16T21:39:52.516Z,15.10
2023-03-16T21:53:25.210Z,11.70
2023-03-16T21:56:59.961Z,14.20
2023-03-16T22:00:34.765Z,15.60
2023-03-16T22:17:24.771Z,19.10
2023-03-16T22:21:00.352Z,18.50
2023-03-16T22:41:36.821Z,15.40
2023-03-16T22:45:20.495Z,17.40
2023-03-16T22:48:54.361Z,19.10
2023-03-16T22:52:30.707Z,19.20
2023-03-16T23:05:57.735Z,21.30
2023-03-16T23:09:31.247Z,27.90
2023-03-16T23:23:35.887Z,22.40
2023-03-16T23:27:16.344Z,24.80
2023-03-16T23:30:49.908Z,22.70
2023-03-16T23:34:25.106Z,18.30
2023-03-16T23:40:59.342Z,23.00
2023-03-16T23:44:33.116Z,20.50
2023-03-16T23:48:09.216Z,19.80
2023-03-16T23:51:42.907Z,21.50
2023-03-16T23:55:42.375Z,27.10
